Tiempo atmosférico en la estación meteorológica de Castellón de la Plana, Almazora, Castelló/Castellón (35 m.)



Fecha
DESCASC
Temp. máxima en grados centígrados (hora)
DESCASC
Temp. mínima en grados centígrados (hora)
DESCASC
Temp. media en grados centígrados
DESCASC
Racha de viento máxima en m/sg (hora)
DESCASC
Velocidad máxima media en intervalos de 10 minutos(hora)
DESCASC
Precipitaciones diarias en mm
DESCASC
Precipitaciones de 00:00 a 06:00 en mm
DESCASC
Precipitaciones de 06:00 a 12:00 en mm
DESCASC
Precipitaciones de 12:00 a 18:00 en mm
DESCASC
Precipitaciones de 18:00 a 24:00 en mm
DESCASC

Gráficas

Temp. máximas Temp. mínimas Temp. medias Precipitaciones Rachas de viento máximas Velocidades máximas media en intervalos de 10 minutos

Datos horarios

Fecha y hora oficial Temperatura (ºC) Velocidad del viento (km/h) Dirección del viento Racha (km/h) Dirección de racha Precipitación (mm) Presión (hPa) Tendencia (hPa) Humedad (%)
2020-01-28 23:00:00 13.9 6 Sudoeste 15 Sudoeste 0 1014.7 0.8 71
2020-01-28 22:00:00 14 6 Sudoeste 17 Sur 0 1014.4 0.8 73
2020-01-28 21:00:00 15 12 Sudoeste 20 Sudoeste 0 1014.4 1.4 70
2020-01-28 20:00:00 15.6 8 Sudoeste 20 Sudoeste 0 1013.9 1.5 66
2020-01-28 19:00:00 16.3 6 Sudoeste 14 Oeste 0 1013.6 1.1 62
2020-01-28 18:00:00 17.1 8 Sur 14 Sur 0 1013 0.2 59
2020-01-28 17:00:00 18.2 7 Sudoeste 15 Sur 0 1012.4 -1 56
2020-01-28 16:00:00 18.6 6 Sur 15 Sur 0 1012.5 -1.5 59
2020-01-28 15:00:00 18.8 8 Sur 21 Sur 0 1012.8 -1.6 54
2020-01-28 14:00:00 18.9 10 Sur 18 Sur 0 1013.4 -1.1 54
2020-01-28 13:00:00 19.7 9 Sur 25 Oeste 0 1014 0 48
2020-01-28 12:00:00 19.4 11 Noroeste 39 Oeste 0 1014.4 1.1 45
2020-01-28 11:00:00 17.6 17 Oeste 28 Oeste 0 1014.5 1.6 50
2020-01-28 10:00:00 15.2 11 Sudoeste 21 Sudoeste 0 1014 1.2 59
2020-01-28 09:00:00 13.3 8 Sur 19 Sudoeste 0 1013.3 0.9 65
2020-01-28 08:00:00 13.3 10 Sudoeste 24 Sudoeste 0 1012.9 0.7 69
2020-01-28 07:00:00 12.2 7 Sur 16 Sudeste 0 1012.8 -0.3 68
2020-01-28 06:00:00 13.4 9 Sur 29 Oeste 0 1012.4 -1.2 61
2020-01-28 05:00:00 13.4 17 Sudoeste 28 Sudoeste 0 1012.2 -1.4 61
2020-01-28 04:00:00 13.8 12 Sudoeste 19 Sur 0 1013.1 -0.4 58
2020-01-28 03:00:00 15.1 10 Sudoeste 25 Sudoeste 0 1013.6 -0.6 52
2020-01-28 02:00:00 15.4 12 Oeste 35 Oeste 0 1013.6 -0.4 51
2020-01-28 01:00:00 14.8 21 Oeste 34 Oeste 0 1013.5 -0.4 53
2020-01-28 00:00:00 15.1 15 Sudoeste 36 Oeste 0 1014.2 0.2 52
2020-01-27 23:00:00 13.9 15 Oeste 26 Sudoeste 0 1014 0.1 56
2020-01-27 22:00:00 12 6 Este 16 Sudoeste 0 1013.9 0.7 61
2020-01-27 21:00:00 13.1 12 Oeste 19 Oeste 0 1014 1.1 57
2020-01-27 20:00:00 11.6 6 Oeste 10 Noroeste 0 1013.9 0.8 69
2020-01-27 19:00:00 12.4 2 Noroeste 9 Nordeste 0 1013.2 -0.1 58
2020-01-27 18:00:00 13.6 4 Nordeste 9 Este 0 1012.9 -1 54
2020-01-27 17:00:00 14.8 5 Nordeste 13 Nordeste 0 1013.1 -1.6 47
2020-01-27 16:00:00 15.1 7 Este 14 Sudeste 0 1013.3 -2.6 47
2020-01-27 15:00:00 15.2 7 Sudeste 13 Sudeste 0 1013.9 -2.7 46
2020-01-27 14:00:00 15.7 9 Sudeste 15 Sur 0 1014.7 -2.4 46
2020-01-27 13:00:00 15.9 6 Sur 10 Sudoeste 0 1015.9 -1.1 48
2020-01-27 12:00:00 13.8 5 Oeste 10 Oeste 0 1016.6 -0.8 50
2020-01-27 11:00:00 11.1 6 Noroeste 16 Oeste 0 1017.1 0 57
2020-01-27 10:00:00 8.9 10 Oeste 19 Noroeste 0 1017 0.3 66
2020-01-27 09:00:00 7.1 10 Oeste 17 Oeste 0 1017.4 0.6 73
2020-01-27 08:00:00 6.7 12 Oeste 18 Oeste 0 1017.1 0 75
2020-01-27 07:00:00 6.3 8 Oeste 17 Oeste 0 1016.7 -0.8 79
2020-01-27 06:00:00 6.7 5 Noroeste 19 Oeste 0 1016.8 -1.2 78
2020-01-27 05:00:00 7 11 Oeste 23 Oeste 0 1017.1 -0.8 76
2020-01-27 04:00:00 6.7 12 Oeste 22 Oeste 0 1017.5 -0.7 82
2020-01-27 03:00:00 7.6 10 Oeste 17 Noroeste 0 1018 -0.6 78
2020-01-27 02:00:00 7.4 7 Oeste 18 Oeste 0 1017.9 -0.8 80
2020-01-27 01:00:00 7.9 5 Noroeste 18 Noroeste 0 1018.2 -0.2 79
2020-01-27 00:00:00 8.3 10 Oeste 16 Oeste 0 1018.6 0.6 76
2020-01-26 23:00:00 8.9 9 Noroeste 16 Oeste 0 1018.7 1.3 84
2020-01-26 22:00:00 9.2 6 Oeste 10 Noroeste 0 1018.4 1.6 88
2020-01-26 21:00:00 9.7 4 Noroeste 9 Oeste 0 1018 2.2 86
2020-01-26 20:00:00 11.1 4 Noroeste 6 Oeste 0 1017.4 2.2 84
2020-01-26 19:00:00 12.2 0 Calma 6 Este 0 1016.8 2.1 84
2020-01-26 18:00:00 13.6 3 Sudeste 12 Sudeste 0 1015.8 1.3 75
2020-01-26 17:00:00 14.6 6 Sudeste 15 Este 0 1015.2 0.7 70
2020-01-26 16:00:00 15.4 8 Sudeste 17 Este 0 1014.7 -0.2 66
2020-01-26 15:00:00 15.8 8 Sudeste 17 Este 0 1014.5 -0.8 60
2020-01-26 14:00:00 15.7 11 Este 16 Este 0 1014.5 -0.7 65
2020-01-26 13:00:00 15.2 2 Este 7 Sudeste 0 1014.9 0.3 65
2020-01-26 12:00:00 13.5 4 Norte 10 Oeste 0 1015.3 1.2 78
2020-01-26 11:00:00 11.1 4 Noroeste 9 Noroeste 0 1015.2 1.9 88
2020-01-26 10:00:00 9.4 4 Noroeste 9 Noroeste 0 1014.6 1.8 90
2020-01-26 09:00:00 9.1 5 Oeste 12 Noroeste 0 1014.1 1.7 89
2020-01-26 08:00:00 9.2 5 Noroeste 9 Noroeste 0 1013.3 1 87
2020-01-26 07:00:00 9.3 4 Noroeste 10 Noroeste 0 1012.8 0.3 88
2020-01-26 06:00:00 9.2 4 Noroeste 15 Oeste 0 1012.4 -0.1 90
2020-01-26 05:00:00 9.3 9 Oeste 15 Oeste 0 1012.3 -0.5 92
2020-01-26 04:00:00 9.6 6 Noroeste 13 Noroeste 0 1012.5 -0.6 92
2020-01-26 03:00:00 10.3 5 Noroeste 8 Noroeste 0 1012.5 -0.3 94
2020-01-26 02:00:00 10.3 0 Calma 8 Sudoeste 0.8 1012.8 -0.1 93
2020-01-26 01:00:00 10.4 9 Sudoeste 13 Oeste 1 1013.1 0 93
2020-01-26 00:00:00 10.4 8 Oeste 13 Noroeste 0 1012.8 0.3 90
2020-01-25 23:00:00 10.5 4 Noroeste 19 Noroeste 0.2 1012.9 0.4 89
2020-01-25 22:00:00 12.4 12 Oeste 24 Noroeste 0 1013.1 1.1 82
2020-01-25 21:00:00 12.5 5 Nordeste 12 Nordeste 0 1012.5 0.5 87
2020-01-25 20:00:00 12.4 5 Nordeste 13 Nordeste 0 1012.5 0.6 88
2020-01-25 19:00:00 12.5 6 Nordeste 15 Este 0 1012 0.1 89
2020-01-25 18:00:00 12.9 4 Este 18 Este 0 1012 -0.4 85
2020-01-25 17:00:00 13.7 8 Este 17 Sudeste 0 1011.9 -1.4 82
2020-01-25 16:00:00 14 5 Este 15 Nordeste 0 1011.9 -2.3 77
2020-01-25 15:00:00 14.2 5 Nordeste 14 Este 0 1012.4 -2.4 76
2020-01-25 14:00:00 14.6 7 Este 16 Este 0 1013.3 -1.6 74
2020-01-25 13:00:00 14.1 4 Este 12 Norte 0 1014.2 -0.6 75
2020-01-25 12:00:00 13.2 5 Nordeste 13 Nordeste 0 1014.8 0.6 75
2020-01-25 11:00:00 12 5 Nordeste 9 Nordeste 0 1014.9 0.7 82
2020-01-25 10:00:00 11.1 7 Oeste 11 Noroeste 0 1014.8 1.1 81
2020-01-25 09:00:00 10.6 3 Noroeste 11 Noroeste 0 1014.2 0.6 83
2020-01-25 08:00:00 10.4 4 Oeste 11 Noroeste 0 1014.2 0.2 85
2020-01-25 07:00:00 10.5 7 Noroeste 13 Oeste 0 1013.7 -0.6 85
2020-01-25 06:00:00 10.4 4 Noroeste 10 Oeste 0 1013.6 -1.2 88
2020-01-25 05:00:00 10.2 6 Noroeste 10 Oeste 0 1014 -1 89
2020-01-25 04:00:00 9.9 3 Noroeste 7 Norte 0 1014.3 -1.2 90
2020-01-25 03:00:00 9.9 4 Noroeste 11 Noroeste 0 1014.8 -0.9 92
2020-01-25 02:00:00 9.3 4 Noroeste 6 Noroeste 0 1015 -0.9 92
2020-01-25 01:00:00 9.8 3 Noroeste 7 Noroeste 0 1015.5 -0.4 91
2020-01-25 00:00:00 10.6 3 Noroeste 7 Noroeste 0 1015.7 -0.2 91
2020-01-24 23:00:00 10.9 3 Noroeste 6 Noroeste 0 1015.9 0.2 90
2020-01-24 22:00:00 11.5 3 Noroeste 6 Oeste 0 1015.9 0.9 88
2020-01-24 21:00:00 11.4 4 Sudoeste 7 Sudoeste 0 1015.9 1.1 90
2020-01-24 20:00:00 11.3 0 Calma 4 Este 0 1015.7 1 89
2020-01-24 19:00:00 11.9 0 Calma 8 Sudeste 0 1015 0.2 87
2020-01-24 18:00:00 12.9 3 Sudeste 14 Este 0 1014.8 -0.1 82
2020-01-24 17:00:00 14.1 8 Sudeste 15 Sur 0 1014.7 -0.7 73
2020-01-24 16:00:00 14.1 6 Sudeste 16 Sur 0 1014.8 -1.6 67
2020-01-24 15:00:00 14.6 9 Sur 18 Sur 0 1014.9 -2 64
2020-01-24 14:00:00 15.6 12 Sur 19 Sur 0 1015.4 -1.7 58
2020-01-24 13:00:00 16 5 Sudoeste 11 Sudoeste 0 1016.4 -0.5 52
2020-01-24 12:00:00 13.9 0 Calma 12 Oeste 0 1016.9 0 61
2020-01-24 11:00:00 11.4 8 Oeste 15 Noroeste 0 1017.1 0.3 78
2020-01-24 10:00:00 9.3 9 Oeste 17 Oeste 0 1016.9 0.2 85
2020-01-24 09:00:00 7.7 9 Oeste 15 Noroeste 0 1016.9 0.2 90
2020-01-24 08:00:00 7.6 7 Oeste 13 Noroeste 0 1016.8 0.1 90
2020-01-24 07:00:00 8.1 6 Noroeste 15 Oeste 0 1016.7 -0.1 90
2020-01-24 06:00:00 8.3 5 Noroeste 13 Noroeste 0 1016.7 -0.3 90
2020-01-24 05:00:00 8.2 4 Oeste 10 Oeste 0 1016.7 -0.5 91
2020-01-24 04:00:00 8 3 Noroeste 10 Noroeste 0 1016.8 -0.7 90
2020-01-24 03:00:00 8.6 5 Noroeste 9 Oeste 0 1017 -0.5 89
2020-01-24 02:00:00 9.3 5 Noroeste 7 Oeste 0 1017.2 0 88
2020-01-24 01:00:00 9.7 4 Noroeste 8 Noroeste 0 1017.5 0.4 89
2020-01-24 00:00:00 10.4 3 Noroeste 10 Nordeste 0 1017.5 0.5 85
2020-01-23 23:00:00 11.3 5 Nordeste 11 Nordeste 0 1017.2 0.6 81
2020-01-23 22:00:00 11.6 5 Nordeste 11 Nordeste 0 1017.1 0.9 81
2020-01-23 21:00:00 11.9 6 Nordeste 11 Nordeste 0 1017 1.4 83
2020-01-23 20:00:00 12 3 Este 7 Nordeste 0 1016.6 1.4 83
2020-01-23 19:00:00 12.1 4 Nordeste 10 Este 0 1016.2 1.1 82
2020-01-23 18:00:00 12.4 5 Este 15 Este 0 1015.6 0.4 81
2020-01-23 17:00:00 13.1 8 Este 14 Sudeste 0 1015.2 -0.3 76
2020-01-23 16:00:00 13.7 4 Sudeste 10 Este 0 1015.1 -0.8 73
2020-01-23 15:00:00 13.4 5 Sudeste 14 Sur 0 1015.2 -1.1 74
2020-01-23 14:00:00 13.7 8 Sudeste 17 Sudeste 0 1015.5 -0.4 73
2020-01-23 13:00:00 14.1 7 Sur 16 Sudoeste 0 1015.9 0.6 65
2020-01-23 12:00:00 12.8 5 Sudeste 10 Este 0 1016.3 1.5 67
2020-01-23 11:00:00 10.3 7 Noroeste 17 Noroeste 0 1015.9 1.5 68
2020-01-23 10:00:00 8.5 11 Oeste 20 Oeste 0 1015.3 1.8 77
2020-01-23 09:00:00 7.7 6 Noroeste 13 Noroeste 0 1014.8 1.6 77
2020-01-23 08:00:00 8.2 6 Noroeste 14 Oeste 0 1014.4 1.6 75
2020-01-23 07:00:00 8.3 6 Noroeste 14 Oeste 0 1013.5 1.1 76
2020-01-23 06:00:00 9.2 7 Noroeste 15 Noroeste 0 1013.2 0.5 74
2020-01-23 05:00:00 9.2 6 Noroeste 19 Oeste 0 1012.8 -0.2 73
2020-01-23 04:00:00 9.7 12 Oeste 21 Oeste 0 1012.4 -0.8 72
2020-01-23 03:00:00 9.9 14 Oeste 22 Noroeste 0 1012.7 -0.3 72
2020-01-23 02:00:00 10.4 12 Oeste 22 Oeste 0 1013 0.2 70
2020-01-23 01:00:00 10.5 13 Oeste 19 Noroeste 0 1013.2 0.7 70
2020-01-23 00:00:00 11.3 7 Norte 19 Nordeste 0 1013 1.1 65
2020-01-22 23:00:00 10.4 9 Norte 23 Oeste 0 1012.8 0.8 75
2020-01-22 22:00:00 9.8 14 Oeste 23 Oeste 0 1012.5 0.9 83
2020-01-22 21:00:00 10.3 13 Oeste 21 Oeste 0 1011.9 1.1 84
2020-01-22 20:00:00 10.9 7 Noroeste 17 Oeste 0.8 1012 1 81
2020-01-22 19:00:00 12 8 Sudoeste 29 Sur 0 1011.6 0.2 73
2020-01-22 18:00:00 14.2 5 Este 12 Este 0 1010.8 -0.9 77
2020-01-22 17:00:00 14.9 6 Nordeste 14 Nordeste 0 1011 -1.5 70
2020-01-22 16:00:00 15 5 Nordeste 20 Nordeste 0 1011.4 -2.2 72
2020-01-22 15:00:00 15.4 7 Nordeste 19 Nordeste 0 1011.7 -- 66
2020-01-22 14:00:00 15 8 Nordeste 24 Nordeste 0 1012.5 -2.2 71
2020-01-22 13:00:00 15 11 Nordeste 26 Nordeste 0 1013.6 -0.6 69
2020-01-22 12:00:00 -- -- -- -- -- -- -- -- --
2020-01-22 11:00:00 13 10 Norte 19 Norte 0 1014.7 0.6 75
2020-01-22 10:00:00 12.1 10 Norte 19 Nordeste 0 1014.2 0.2 76
2020-01-22 09:00:00 11.6 9 Norte 18 Norte 0 1014.2 0.4 78
2020-01-22 08:00:00 11.3 12 Norte 18 Norte 0 1014.1 0.5 79
2020-01-22 07:00:00 11.1 8 Nordeste 18 Nordeste 0 1014 0.1 80
2020-01-22 06:00:00 11 12 Nordeste 26 Nordeste 0 1013.8 -0.2 80
2020-01-22 05:00:00 10.9 16 Nordeste 24 Nordeste 0 1013.6 -0.4 82
2020-01-22 04:00:00 11 12 Nordeste 24 Nordeste 0 1013.9 -0.1 82
2020-01-22 03:00:00 10.7 12 Nordeste 21 Nordeste 0 1014 0.2 85
2020-01-22 02:00:00 10.7 8 Nordeste 19 Nordeste 0 1014 0.9 87
2020-01-22 01:00:00 11.7 10 Nordeste 23 Nordeste 0 1014 1.2 86
2020-01-22 00:00:00 11.8 6 Nordeste 23 Nordeste 0 1013.8 1.7 89
2020-01-21 23:00:00 12.3 11 Nordeste 24 Este 0 1013.1 1.7 88
2020-01-21 22:00:00 12.8 6 Nordeste 15 Nordeste 0 1012.8 2.3 92
2020-01-21 21:00:00 12.7 12 Nordeste 23 Nordeste 0 1012.1 2.1 91
2020-01-21 20:00:00 12.7 12 Nordeste 23 Nordeste 0 1011.4 1.7 91
2020-01-21 19:00:00 12.1 8 Nordeste 23 Nordeste 0 1010.5 0.3 89
2020-01-21 18:00:00 10.9 12 Nordeste 34 Nordeste 2.4 1010 0.5 91
2020-01-21 17:00:00 10.9 17 Nordeste 31 Nordeste 1.2 1009.7 0.8 93
2020-01-21 16:00:00 10.8 16 Nordeste 34 Nordeste 2.2 1010.2 0.9 93
2020-01-21 15:00:00 10.6 6 Este 55 Este 2.8 1009.5 -1 92
2020-01-21 14:00:00 13 14 Este 42 Este 2.4 1008.9 -2.9 94
2020-01-21 13:00:00 13.8 15 Este 36 Este 0.8 1009.3 -2 92
2020-01-21 12:00:00 13.5 13 Nordeste 32 Nordeste 0.8 1010.5 -0.8 93
2020-01-21 11:00:00 13.4 17 Nordeste 40 Nordeste 1.2 1011.8 0.5 91
2020-01-21 10:00:00 13.3 20 Nordeste 42 Nordeste 1.2 1011.3 0.3 93
2020-01-21 09:00:00 11.1 22 Nordeste 38 Nordeste 1 1011.3 0 87
2020-01-21 08:00:00 10.6 15 Norte 50 Norte 1.8 1011.3 -0.8 87
2020-01-21 07:00:00 9.1 22 Norte 50 Norte 1.6 1011 -2.4 85
2020-01-21 06:00:00 9.3 29 Norte 55 Nordeste 1.4 1011.3 -3.1 81
2020-01-21 05:00:00 8.9 32 Norte 59 Norte 0.2 1012.1 -2.7 80
2020-01-21 04:00:00 8.5 30 Nordeste 55 Nordeste 2.4 1013.4 -2.5 82
2020-01-21 03:00:00 8.7 29 Norte 63 Norte 2 1014.4 -1.9 84
2020-01-21 02:00:00 8.9 23 Norte 46 Nordeste 3.2 1014.8 -1 86
2020-01-21 01:00:00 8.6 32 Norte 58 Norte 1.4 1015.9 0.3 85
2020-01-21 00:00:00 8.3 25 Norte 59 Nordeste 1.6 1016.3 0.5 86
2020-01-20 23:00:00 8 35 Norte 67 Norte 2 1015.8 -0.3 85
2020-01-20 22:00:00 7.6 35 Norte 62 Nordeste 1.6 1015.6 -0.2 84
2020-01-20 21:00:00 7.5 35 Norte 61 Norte 2 1015.8 0.1 82
2020-01-20 20:00:00 7.4 36 Norte 67 Norte 1.4 1016.1 0.8 84
2020-01-20 19:00:00 7.3 31 Norte 63 Norte 1.2 1015.8 0.2 84
2020-01-20 18:00:00 7 32 Norte 68 Norte 1.4 1015.7 0 82
2020-01-20 17:00:00 6.8 36 Norte 66 Norte 0.8 1015.3 -1.3 80
2020-01-20 16:00:00 7.1 35 Norte 63 Nordeste 0.2 1015.6 -1.9 78
2020-01-20 15:00:00 7 36 Nordeste 64 Norte 0.4 1015.7 -2.2 80
2020-01-20 14:00:00 6.6 30 Norte 57 Nordeste 0.8 1016.6 -1 80
2020-01-20 13:00:00 6.4 29 Norte 60 Norte 1.8 1017.5 0.4 82
2020-01-20 12:00:00 6.9 32 Norte 56 Nordeste 0.8 1017.9 1.1 80
2020-01-20 11:00:00 6.5 29 Norte 59 Norte 0.4 1017.6 1.3 81
2020-01-20 10:00:00 6.3 27 Norte 46 Nordeste 0.6 1017.1 1.3 79
2020-01-20 09:00:00 5.9 27 Norte 49 Nordeste 0.2 1016.8 1.1 79
2020-01-20 08:00:00 5.6 26 Norte 65 Nordeste 0.2 1016.3 0.5 79
2020-01-20 07:00:00 5.7 28 Norte 59 Nordeste 0 1015.8 -0.4 78
2020-01-20 06:00:00 5.8 30 Nordeste 58 Nordeste 0.8 1015.7 -0.6 77
2020-01-20 05:00:00 5.7 28 Norte 56 Nordeste 0.2 1015.8 -0.7 75
2020-01-20 04:00:00 6.2 30 Norte 52 Nordeste 0.2 1016.2 -0.2 70
2020-01-20 03:00:00 7.1 27 Norte 74 Norte 0 1016.3 0.1 67
2020-01-20 02:00:00 8.6 39 Nordeste 71 Norte 0 1016.5 0.6 54
2020-01-20 01:00:00 9.9 23 Nordeste 49 Norte 0 1016.4 0.5 46
2020-01-20 00:00:00 10.4 25 Nordeste 55 Nordeste 0 1016.2 0.7 38
2020-01-19 23:00:00 10.5 19 Nordeste 41 Nordeste 0 1015.9 0.3 41
2020-01-19 22:00:00 10.3 17 Norte 42 Norte 0 1015.9 1 49
2020-01-19 21:00:00 10 13 Norte 38 Nordeste 0 1015.5 1.1 56
2020-01-19 20:00:00 10.7 18 Nordeste 64 Norte 0 1015.6 0.9 53
2020-01-19 19:00:00 9.5 10 Nordeste 28 Norte 0 1014.9 0.6 66
2020-01-19 18:00:00 9.2 8 Norte 62 Nordeste 0.2 1014.4 0.4 65
2020-01-19 17:00:00 8.1 23 Nordeste 45 Nordeste 0.4 1014.7 1.4 76
2020-01-19 16:00:00 7.4 19 Nordeste 51 Nordeste 2.4 1014.3 1.3 82
2020-01-19 15:00:00 7.6 13 Nordeste 41 Norte 2.8 1014 1.3 86
2020-01-19 14:00:00 8.1 21 Nordeste 46 Nordeste 1.2 1013.3 1.1 84
2020-01-19 13:00:00 8.4 19 Norte 42 Norte 1.4 1013 1.7 84
2020-01-19 12:00:00 8.5 23 Norte 45 Nordeste 1.6 1012.7 1.8 79
2020-01-19 11:00:00 9.1 20 Norte 45 Nordeste 0.8 1012.2 2.2 75
2020-01-19 10:00:00 8.7 9 Norte 27 Noroeste 2.8 1011.3 1.6 83
2020-01-19 09:00:00 9.3 10 Norte 22 Norte 1.4 1010.9 1.3 78
2020-01-19 08:00:00 10.1 6 Norte 18 Oeste 0.6 1010 0 76
2020-01-19 07:00:00 11 9 Oeste 18 Oeste 0 1009.7 -1 67
2020-01-19 06:00:00 9.9 3 Sudoeste 10 Sudoeste 0 1009.6 -1.9 78
2020-01-19 05:00:00 10.1 5 Noroeste 14 Oeste 0 1010 -1.4 77
2020-01-19 04:00:00 9.6 6 Norte 12 Oeste 0 1010.7 -1.7 83
2020-01-19 03:00:00 9.9 6 Norte 13 Sudoeste 0 1011.5 -1.5 81
2020-01-19 02:00:00 9.4 5 Noroeste 12 Noroeste 0 1011.4 -2.2 80
2020-01-19 01:00:00 9.6 4 Noroeste 8 Noroeste 0 1012.4 -1.7 78
2020-01-19 00:00:00 10.1 2 Sur 7 Oeste 0 1013 -1.2 75
2020-01-18 23:00:00 10.2 4 Sudoeste 8 Norte 0 1013.6 -1.1 75
2020-01-18 22:00:00 10.3 4 Norte 9 Norte 0 1014.1 -0.8 75
2020-01-18 21:00:00 11 4 Noroeste 8 Oeste 0 1014.2 -1 69
2020-01-18 20:00:00 12.9 5 Sudoeste 14 Sudoeste 0 1014.7 -1.2 63
2020-01-18 19:00:00 14.3 9 Sudoeste 16 Sudoeste 0 1014.9 -2 57
2020-01-18 18:00:00 15.9 9 Sur 24 Sudoeste 0 1015.2 -3 51
2020-01-18 17:00:00 16.9 15 Sudoeste 29 Sur 0 1015.9 -3.8 47
2020-01-18 16:00:00 16.2 16 Sur 27 Sur 0 1016.9 -5 56
2020-01-18 15:00:00 15.4 10 Sur 17 Sur 0 1018.2 -5.5 55
2020-01-18 14:00:00 14.1 4 Sudeste 13 Sudeste 0 1019.7 -4.9 51
2020-01-18 13:00:00 13.4 5 Sur 10 Sur 0 1021.9 -2.7 50
2020-01-18 12:00:00 12.3 5 Sudoeste 9 Noroeste 0 1023.7 -1 55
2020-01-18 11:00:00 10.8 6 Oeste 10 Oeste 0 1024.6 -0.2 57
2020-01-18 10:00:00 9.5 4 Noroeste 9 Noroeste 0 1024.6 0.5 58
2020-01-18 09:00:00 9.1 3 Noroeste 13 Noroeste 0 1024.7 0.5 57
2020-01-18 08:00:00 8.8 6 Noroeste 15 Noroeste 0 1024.8 0.4 58
2020-01-18 07:00:00 8.2 6 Noroeste 11 Oeste 0 1024.1 -0.7 60
2020-01-18 06:00:00 8.9 7 Oeste 12 Oeste 0 1024.2 -1.1 56
2020-01-18 05:00:00 8.8 6 Oeste 14 Oeste 0 1024.4 -1.1 57
2020-01-18 04:00:00 9.8 6 Oeste 14 Oeste 0 1024.8 -0.9 52
2020-01-18 03:00:00 9.7 10 Oeste 22 Oeste 0 1025.3 -0.4 52
2020-01-18 02:00:00 9.2 12 Oeste 17 Oeste 0 1025.5 0.3 54
2020-01-18 01:00:00 9 10 Oeste 15 Oeste 0 1025.7 1.1 54
2020-01-18 00:00:00 9.3 5 Noroeste 13 Oeste 0 1025.7 1.3 53
2020-01-17 23:00:00 9.1 9 Oeste 14 Oeste 0 1025.2 1.5 56
2020-01-17 22:00:00 9.6 4 Noroeste 12 Noroeste 0 1024.6 1.7 54
2020-01-17 21:00:00 11.6 5 Noroeste 7 Noroeste 0 1024.4 2.5 48
2020-01-17 20:00:00 14.5 6 Noroeste 20 Oeste 0 1023.7 2.5 39
2020-01-17 19:00:00 16.8 13 Oeste 34 Oeste 0 1022.9 2.2 34
2020-01-17 18:00:00 17.8 12 Oeste 35 Oeste 0 1021.9 1.3 31
2020-01-17 17:00:00 18.9 14 Oeste 27 Oeste 0 1021.2 0.6 33
2020-01-17 16:00:00 19 12 Oeste 28 Sudoeste 0 1020.7 -0.8 34
2020-01-17 15:00:00 19.2 14 Oeste 40 Noroeste 0 1020.6 -1.2 33
2020-01-17 14:00:00 19.4 19 Oeste 36 Oeste 0 1020.6 -1 32
2020-01-17 13:00:00 19.4 20 Oeste 35 Oeste 0 1021.5 0.3 32
2020-01-17 12:00:00 17.5 11 Noroeste 30 Oeste 0 1021.8 0.7 37
2020-01-17 11:00:00 16.3 14 Oeste 32 Oeste 0 1021.6 1.4 41
2020-01-17 10:00:00 14.4 13 Oeste 30 Oeste 0 1021.2 1.4 46
2020-01-17 09:00:00 9.7 8 Oeste 19 Oeste 0 1021.1 1.4 63
2020-01-17 08:00:00 9.2 13 Oeste 21 Noroeste 0 1020.2 0.7 70
2020-01-17 07:00:00 8.9 14 Oeste 20 Oeste 0 1019.8 -0.5 67
2020-01-17 06:00:00 7.6 11 Oeste 17 Oeste 0 1019.7 -0.8 79
2020-01-17 05:00:00 7.1 5 Oeste 15 Oeste 0 1019.5 -1.4 87
2020-01-17 04:00:00 7.8 7 Oeste 15 Oeste 0 1020.3 -1.1 84
2020-01-17 03:00:00 7.6 5 Noroeste 15 Oeste 0 1020.5 -1.2 83
2020-01-17 02:00:00 7.4 8 Oeste 16 Oeste 0 1020.9 -0.6 88
2020-01-17 01:00:00 7.5 8 Oeste 13 Oeste 0 1021.4 -0.2 86
2020-01-17 00:00:00 7.7 9 Oeste 13 Oeste 0 1021.7 0.3 86
2020-01-16 23:00:00 8.2 5 Oeste 11 Oeste 0 1021.5 0.1 85
2020-01-16 22:00:00 8.9 6 Oeste 12 Oeste 0 1021.6 0.6 85
2020-01-16 21:00:00 9.3 4 Noroeste 7 Oeste 0 1021.4 0.9 84
2020-01-16 20:00:00 10.5 4 Noroeste 6 Noroeste 0 1021.4 1.2 82
2020-01-16 19:00:00 11.7 2 Nordeste 6 Este 0 1021 0.8 78
2020-01-16 18:00:00 13.1 4 Sur 12 Sudeste 0 1020.5 0.4 74
2020-01-16 17:00:00 14.4 7 Sudeste 15 Este 0 1020.2 -0.4 66
2020-01-16 16:00:00 15.1 7 Sudeste 17 Sur 0 1020.2 -1.4 58
2020-01-16 15:00:00 16 8 Sudeste 17 Este 0 1020.1 -2.5 57
2020-01-16 14:00:00 16.9 7 Sudeste 13 Sudeste 0 1020.6 -2.3 53
2020-01-16 13:00:00 17 4 Norte -- -- -- 1021.6 -1.4 45
2020-01-16 12:00:00 14.9 3 Norte 9 Oeste 0 1022.6 0 51
2020-01-16 11:00:00 12.3 6 Noroeste 15 Oeste 0 1022.9 0.4 59
2020-01-16 10:00:00 9.6 9 Noroeste 18 Noroeste 0 1023 0.9 69
2020-01-16 09:00:00 6.9 7 Noroeste 14 Noroeste 0 1022.6 1 78
2020-01-16 08:00:00 6.6 8 Oeste 13 Oeste 0 1022.5 0.9 78
2020-01-16 07:00:00 6.5 8 Oeste 12 Oeste 0 1022.1 0.7 79
2020-01-16 06:00:00 6.4 6 Noroeste 14 Oeste 0 1021.6 0.4 81
2020-01-16 05:00:00 6.9 5 Noroeste 13 Oeste 0 1021.6 0.8 76
2020-01-16 04:00:00 7.1 9 Oeste 16 Oeste 0 1021.4 0.5 76
2020-01-16 03:00:00 6.8 6 Noroeste 11 Oeste 0 1021.2 0.3 77
2020-01-16 02:00:00 6.8 4 Oeste 12 Oeste 0 1020.8 0.1 78
2020-01-16 01:00:00 6.9 5 Noroeste 11 Noroeste 0 1020.9 0.3 77
2020-01-16 00:00:00 7.4 5 Noroeste 12 Noroeste 0 1020.9 0.3 76
2020-01-15 23:00:00 7.4 6 Noroeste 14 Noroeste 0 1020.7 0 76
2020-01-15 22:00:00 7.5 5 Noroeste 10 Oeste 0 1020.6 0.5 78
2020-01-15 21:00:00 7.9 6 Noroeste 10 Noroeste 0 1020.6 1.1 76
2020-01-15 20:00:00 9.2 4 Noroeste 8 Noroeste 0 1020.7 1.8 75
2020-01-15 19:00:00 10.4 3 Nordeste 5 Este 0 1020.1 1.5 76
2020-01-15 18:00:00 11.8 2 Sudeste 7 Sudeste 0 1019.5 0.8 70
2020-01-15 17:00:00 12.8 3 Nordeste 12 Sudeste 0 1018.9 0.1 64
2020-01-15 16:00:00 13.3 6 Sudeste 12 Este 0 1018.6 -0.9 59
2020-01-15 15:00:00 13.6 5 Sudeste 11 Sudeste 0 1018.7 -1.2 52
2020-01-15 14:00:00 13.5 6 Sur 11 Sudoeste 0 1018.8 -1.2 47
2020-01-15 13:00:00 12.7 3 Sudoeste 11 Sudoeste 0 1019.5 0.1 53
2020-01-15 12:00:00 11.4 3 Sudeste 9 Oeste 0 1019.9 1.5 64
2020-01-15 11:00:00 8.8 4 Noroeste 9 Noroeste 0 1020 1.9 69
2020-01-15 10:00:00 5.5 6 Noroeste 13 Oeste 0 1019.4 1.9 72
2020-01-15 09:00:00 4.4 5 Noroeste 15 Noroeste 0 1018.4 1.1 79
2020-01-15 08:00:00 3.9 8 Oeste 13 Oeste 0 1018.1 1.4 80
2020-01-15 07:00:00 4.1 8 Oeste 16 Oeste 0 1017.5 0.8 81
2020-01-15 06:00:00 4.5 10 Oeste 14 Noroeste 0 1017.3 0.4 79
2020-01-15 05:00:00 4.2 9 Oeste 15 Oeste 0 1016.7 0.1 82
2020-01-15 04:00:00 4.6 8 Oeste 15 Oeste 0 1016.7 0 81
2020-01-15 03:00:00 5.4 8 Noroeste 18 Oeste 0 1016.9 0.1 78
2020-01-15 02:00:00 5.2 12 Oeste 16 Oeste 0 1016.6 -0.3 81
2020-01-15 01:00:00 5.3 10 Oeste 16 Noroeste 0 1016.7 -0.2 85
2020-01-15 00:00:00 5.5 8 Oeste 16 Oeste 0 1016.8 -0.1 86
2020-01-14 23:00:00 5.7 9 Oeste 14 Oeste 0 1016.9 0.2 88
2020-01-14 22:00:00 6.1 4 Noroeste 12 Oeste 0 1016.9 0.7 86
2020-01-14 21:00:00 6.7 6 Noroeste 9 Noroeste 0 1016.9 1.1 84
2020-01-14 20:00:00 8.1 4 Noroeste 7 Noroeste 0 1016.7 1.2 82
2020-01-14 19:00:00 9.4 0 Calma 5 Este 0 1016.2 1 82
2020-01-14 18:00:00 10.8 3 Este 9 Sudeste 0 1015.8 0.7 75
2020-01-14 17:00:00 12.1 6 Sudeste 13 Sudeste 0 1015.5 0.1 69
2020-01-14 16:00:00 12.9 6 Sudeste 15 Sudeste 0 1015.2 -1.1 64
2020-01-14 15:00:00 13.5 7 Sudeste 14 Sudeste 0 1015.1 -2.1 55
2020-01-14 14:00:00 13.7 6 Sudeste 11 Sudeste 0 1015.4 -2 47
2020-01-14 13:00:00 13.5 5 Sudeste 11 Sur 0 1016.3 -0.7 39
2020-01-14 12:00:00 11.1 5 Sur 9 Sur 0 1017.2 0.7 64
2020-01-14 11:00:00 8.5 5 Oeste 13 Oeste 0 1017.4 1.1 54
2020-01-14 10:00:00 5.3 7 Oeste 15 Noroeste 0 1017 1 56
2020-01-14 09:00:00 3.5 9 Oeste 15 Oeste 0 1016.5 1.2 66
2020-01-14 08:00:00 3.4 10 Oeste 15 Noroeste 0 1016.3 1.1 69
2020-01-14 07:00:00 3.4 8 Oeste 15 Noroeste 0 1016 0.6 72
2020-01-14 06:00:00 3.9 11 Oeste 15 Oeste 0 1015.3 0 72
2020-01-14 05:00:00 4.1 10 Oeste 14 Oeste 0 1015.2 -0.2 73
2020-01-14 04:00:00 3.7 8 Noroeste 13 Oeste 0 1015.4 -0.5 77
2020-01-14 03:00:00 4.5 9 Oeste 13 Oeste 0 1015.3 -0.7 75
2020-01-14 02:00:00 5.3 9 Oeste 13 Noroeste 0 1015.4 -0.5 72
2020-01-14 01:00:00 5.5 9 Oeste 14 Oeste 0 1015.9 -0.4 75
2020-01-14 00:00:00 5.7 6 Oeste 10 Noroeste 0 1016 -0.8 75
2020-01-13 23:00:00 6.5 6 Noroeste 14 Oeste 0 1015.9 -0.9 71
2020-01-13 22:00:00 6.9 6 Noroeste 11 Oeste 0 1016.3 -0.6 71
2020-01-13 21:00:00 7 4 Noroeste 9 Noroeste 0 1016.8 0.3 75
2020-01-13 20:00:00 8 5 Noroeste 8 Noroeste 0 1016.8 0.4 71
2020-01-13 19:00:00 9.5 2 Norte 4 Nordeste 0 1016.9 0.3 64
2020-01-13 18:00:00 10.8 2 Nordeste 6 Norte 0 1016.5 0 57
2020-01-13 17:00:00 11.8 5 Este 8 Sudeste 0 1016.4 -1 47
2020-01-13 16:00:00 12.4 4 Este 11 Este 0 1016.6 -2 41
2020-01-13 15:00:00 12.8 7 Este 13 Este 0 1016.5 -3.4 37
2020-01-13 14:00:00 12.9 7 Este 15 Sudeste 0 1017.4 -3.1 44
2020-01-13 13:00:00 13 3 Nordeste 6 Sudeste 0 1018.6 -1.9 35
2020-01-13 12:00:00 10.1 3 Oeste 10 Sudoeste 0 1019.9 -0.3 46
2020-01-13 11:00:00 7.9 6 Oeste 19 Oeste 0 1020.5 0.2 48
2020-01-13 10:00:00 4.8 10 Oeste 19 Oeste 0 1020.5 0.4 63
2020-01-13 09:00:00 3.1 10 Oeste 17 Noroeste 0 1020.2 -0.2 72
2020-01-13 08:00:00 2.9 10 Oeste 16 Oeste 0 1020.3 -0.5 78
2020-01-13 07:00:00 3.6 10 Oeste 16 Noroeste 0 1020.1 -1.3 77
2020-01-13 06:00:00 3.6 9 Oeste 16 Oeste 0 1020.4 -1.5 83
2020-01-13 05:00:00 4.6 9 Oeste 17 Oeste 0 1020.8 -1.5 83
2020-01-13 04:00:00 4.4 10 Oeste 16 Oeste 0 1021.4 -1.7 87
2020-01-13 03:00:00 4.7 9 Oeste 15 Noroeste 0 1021.9 -2 89
2020-01-13 02:00:00 5 7 Noroeste 14 Noroeste 0 1022.3 -2 77
2020-01-13 01:00:00 5.6 8 Noroeste 16 Oeste 0 1023.1 -1.3 83
2020-01-13 00:00:00 5.7 7 Oeste 15 Oeste 0 1023.9 -0.6 87
2020-01-12 23:00:00 6.2 8 Oeste 13 Noroeste 0 1024.3 -0.1 88
2020-01-12 22:00:00 6.4 9 Oeste 12 Noroeste 0 1024.4 0.5 89
2020-01-12 21:00:00 6.9 6 Noroeste 9 Oeste 0 1024.5 1.1 87
2020-01-12 20:00:00 8 4 Noroeste 7 Noroeste 0 1024.4 1.3 85
2020-01-12 19:00:00 9.5 0 Calma 5 Este 0 1023.9 0.9 86
2020-01-12 18:00:00 10.9 4 Este 9 Este 0 1023.4 0.6 80
2020-01-12 17:00:00 12 5 Sudeste 16 Sudeste 0 1023.1 -0.4 74
2020-01-12 16:00:00 12.7 8 Este 15 Este 0 1023 -1.2 70
2020-01-12 15:00:00 12.9 5 Este 10 Sudeste 0 1022.8 -2.2 67
2020-01-12 14:00:00 12.9 6 Sudeste 16 Este 0 1023.5 -1.6 69
2020-01-12 13:00:00 13.1 6 Sudeste 13 Este 0 1024.2 -0.3 67
2020-01-12 12:00:00 11.3 5 Este 9 Sur 0 1025 0.8 71
2020-01-12 11:00:00 9.1 5 Oeste 10 Oeste 0 1025.1 1.2 58
2020-01-12 10:00:00 6.1 4 Noroeste 14 Noroeste 0 1024.5 0.9 58
2020-01-12 09:00:00 3.8 8 Oeste 20 Oeste 0 1024.2 0.9 66
2020-01-12 08:00:00 3.6 13 Oeste 22 Oeste 0 1023.9 0.6 70
2020-01-12 07:00:00 3.9 14 Oeste 21 Oeste 0 1023.6 -0.3 69
2020-01-12 06:00:00 4.5 7 Noroeste 17 Noroeste 0 1023.3 -0.8 66
2020-01-12 05:00:00 4.9 8 Noroeste 20 Oeste 0 1023.3 -1 62
2020-01-12 04:00:00 4.9 12 Oeste 22 Oeste 0 1023.9 -0.6 63
2020-01-12 03:00:00 4.9 14 Oeste 22 Oeste 0 1024.1 -0.7 68
2020-01-12 02:00:00 5.6 12 Oeste 22 Oeste 0 1024.3 -0.5 68
2020-01-12 01:00:00 5.9 10 Oeste 19 Oeste 0 1024.5 -0.1 71
2020-01-12 00:00:00 5.5 10 Oeste 15 Oeste 0 1024.8 0.3 77
2020-01-11 23:00:00 5.7 6 Oeste 12 Noroeste 0 1024.8 0.4 80
2020-01-11 22:00:00 6.3 4 Noroeste 10 Oeste 0 1024.6 0.6 77
2020-01-11 21:00:00 7.3 5 Oeste 9 Oeste 0 1024.5 0.8 76
2020-01-11 20:00:00 8.8 0 Calma 3 Norte 0 1024.4 0.9 71
2020-01-11 19:00:00 10 0 Calma 5 Este 0 1024 0.3 68
2020-01-11 18:00:00 11.5 4 Sur 12 Sur 0 1023.7 0 62
2020-01-11 17:00:00 13 7 Sur 16 Sudeste 0 1023.5 -0.3 53
2020-01-11 16:00:00 13.7 8 Sudeste 17 Sur 0 1023.7 -1.1 46
2020-01-11 15:00:00 14.2 12 Sudeste 19 Sudeste 0 1023.7 -1.8 42
2020-01-11 14:00:00 15 10 Sudeste 19 Este 0 1023.8 -2 37
2020-01-11 13:00:00 15 5 Este 10 Oeste 0 1024.8 -0.5 36
2020-01-11 12:00:00 13.4 6 Oeste 19 Oeste 0 1025.5 0.8 41
2020-01-11 11:00:00 11.6 12 Oeste 22 Oeste 0 1025.8 1.3 45
2020-01-11 10:00:00 8.9 10 Oeste 19 Oeste 0 1025.3 1.1 55
2020-01-11 09:00:00 6.9 8 Oeste 18 Oeste 0 1024.7 0.8 62
2020-01-11 08:00:00 6.9 9 Oeste 16 Noroeste 0 1024.5 0.9 61
2020-01-11 07:00:00 7.3 9 Oeste 14 Oeste 0 1024.2 0.7 60
2020-01-11 06:00:00 8 8 Oeste 17 Oeste 0 1023.9 0.9 58
2020-01-11 05:00:00 8.7 10 Oeste 21 Oeste 0 1023.6 1.2 55
2020-01-11 04:00:00 9.5 13 Oeste 26 Oeste 0 1023.5 1 53
2020-01-11 03:00:00 9.5 14 Oeste 22 Oeste 0 1023 -0.1 54
2020-01-11 02:00:00 9.4 11 Oeste 19 Noroeste 0 1022.4 -0.3 56
2020-01-11 01:00:00 10.2 12 Oeste 19 Oeste 0 1022.5 -0.3 54
2020-01-11 00:00:00 10.2 8 Oeste 15 Oeste 0 1023.1 0.7 55
2020-01-10 23:00:00 10.6 9 Oeste 14 Oeste 0 1022.7 0.4 56
2020-01-10 22:00:00 11.5 7 Sudoeste 11 Sudoeste 0 1022.8 1.1 56
2020-01-10 21:00:00 12.2 5 Nordeste 11 Este 0 1022.4 1.4 51
2020-01-10 20:00:00 11.8 5 Nordeste 12 Nordeste 0 1022.3 1.5 55
2020-01-10 19:00:00 11.4 3 Nordeste 13 Nordeste 0 1021.7 1.2 60
2020-01-10 18:00:00 12.4 4 Nordeste 13 Nordeste 0 1021 0.8 57
2020-01-10 17:00:00 13.2 6 Nordeste 22 Norte 0 1020.8 1.4 57
2020-01-10 16:00:00 12.9 5 Nordeste 30 Nordeste 0 1020.5 1.1 56
2020-01-10 15:00:00 12.7 15 Nordeste 38 Norte 0 1020.2 0.2 56
2020-01-10 14:00:00 14.5 14 Norte 38 Nordeste 0 1019.4 -0.3 40
2020-01-10 13:00:00 14.5 16 Norte 36 Norte 0 1019.4 0 38
2020-01-10 12:00:00 14.7 11 Nordeste 38 Norte 0 1020 1.3 37
2020-01-10 11:00:00 14 17 Norte 29 Nordeste 0 1019.7 1.5 38
2020-01-10 10:00:00 12.7 9 Norte 27 Nordeste 0 1019.4 1.3 45
2020-01-10 09:00:00 11.6 9 Norte 19 Norte 0 1018.7 1.1 51
2020-01-10 08:00:00 10 3 Sudoeste 16 Oeste 0 1018.2 1.2 73
2020-01-10 07:00:00 9.5 4 Noroeste 9 Noroeste 0 1018.1 1 82
2020-01-10 06:00:00 8.4 4 Noroeste 8 Oeste 0 1017.6 0.2 89
2020-01-10 05:00:00 8 3 Noroeste 14 Oeste 0 1017 -0.5 88
2020-01-10 04:00:00 7.5 8 Oeste 15 Noroeste 0 1017.1 -0.7 88
2020-01-10 03:00:00 7.7 7 Oeste 17 Oeste 0 1017.4 -0.9 88
2020-01-10 02:00:00 7.7 8 Oeste 19 Oeste 0 1017.5 -1.4 87
2020-01-10 01:00:00 8.1 6 Oeste 12 Oeste 0 1017.8 -1.1 87
2020-01-10 00:00:00 8.7 5 Noroeste 11 Oeste 0 1018.3 -0.8 84
2020-01-09 23:00:00 9.3 6 Oeste 12 Oeste 0 1018.9 -0.9 83
2020-01-09 22:00:00 9.4 4 Oeste 7 Oeste 0 1018.9 -0.8 83
2020-01-09 21:00:00 9.6 5 Noroeste 7 Noroeste 0 1019.1 0 82
2020-01-09 20:00:00 10.5 5 Sur 9 Sur 0 1019.8 0.6 80
2020-01-09 19:00:00 10.9 2 Sudoeste 7 Sur 0 1019.7 0.3 79
2020-01-09 18:00:00 12.1 4 Sudeste 13 Sudeste 0 1019.1 -1 74
2020-01-09 17:00:00 13.4 9 Sur 17 Sur 0 1019.2 -1.5 66
2020-01-09 16:00:00 14.1 9 Sur 18 Sudeste 0 1019.4 -2.1 63
2020-01-09 15:00:00 14.2 8 Sur 17 Sur 0 1020.1 -2.3 64
2020-01-09 14:00:00 14.3 9 Sur 17 Sudeste 0 1020.7 -2.3 68
2020-01-09 13:00:00 14.3 9 Sudeste 17 Sudeste 0 1021.5 -1.2 63
2020-01-09 12:00:00 12.1 4 Sudeste 9 Sudeste 0 1022.4 -0.2 66
2020-01-09 11:00:00 9.8 6 Oeste 14 Oeste 0 1023 0.4 71
2020-01-09 10:00:00 7.4 9 Oeste 17 Noroeste 0 1022.7 0 81
2020-01-09 09:00:00 6.4 9 Oeste 21 Oeste 0 1022.6 -0.4 81
2020-01-09 08:00:00 6.5 11 Oeste 20 Oeste 0 1022.6 -0.8 82
2020-01-09 07:00:00 6.2 9 Oeste 18 Oeste 0 1022.7 -0.9 85
2020-01-09 06:00:00 6.3 9 Oeste 18 Oeste 0 1023 -1.1 85
2020-01-09 05:00:00 7.1 8 Oeste 17 Noroeste 0 1023.4 -0.9 84
2020-01-09 04:00:00 7 10 Oeste 17 Noroeste 0 1023.6 -0.9 86
2020-01-09 03:00:00 6.9 10 Oeste 15 Oeste 0 1024.1 -0.8 87
2020-01-09 02:00:00 7.1 8 Oeste 13 Noroeste 0 1024.3 -0.8 85
2020-01-09 01:00:00 7.3 8 Oeste 14 Noroeste 0 1024.5 -0.5 86
2020-01-09 00:00:00 8 8 Oeste 15 Oeste 0 1024.9 -0.2 85
2020-01-08 23:00:00 8.3 9 Oeste 13 Noroeste 0 1025.1 0 85
2020-01-08 22:00:00 8.5 6 Noroeste 13 Noroeste 0 1025 0.1 84
2020-01-08 21:00:00 9.3 5 Noroeste 10 Noroeste 0 1025.1 0.3 83
2020-01-08 20:00:00 10.2 3 Noroeste 7 Noroeste 0 1025.1 0.8 82
2020-01-08 19:00:00 11.6 3 Nordeste 9 Este 0 1024.9 0.7 81
2020-01-08 18:00:00 13.2 2 Este 9 Nordeste 0 1024.8 0.5 75
2020-01-08 17:00:00 15 4 Noroeste 11 Oeste 0 1024.3 -0.5 62
2020-01-08 16:00:00 14.8 5 Noroeste 18 Oeste 0 1024.2 -1.4 63
2020-01-08 15:00:00 14.1 9 Oeste 18 Oeste 0 1024.3 -2 68
2020-01-08 14:00:00 13.7 6 Noroeste 15 Oeste 0 1024.8 -1.6 72
2020-01-08 13:00:00 13.6 6 Noroeste 13 Oeste 0 1025.6 0 72
2020-01-08 12:00:00 11.5 8 Oeste 16 Noroeste 0 1026.3 1.9 84
2020-01-08 11:00:00 10.3 6 Norte 12 Noroeste 0 1026.4 2.9 89
2020-01-08 10:00:00 8.4 5 Noroeste 9 Noroeste 0 1025.6 2.7 91
2020-01-08 09:00:00 7.2 5 Noroeste 9 Noroeste 0 1024.4 2 91
2020-01-08 08:00:00 6 3 Noroeste 11 Noroeste 0 1023.5 1.5 88
2020-01-08 07:00:00 5.6 6 Noroeste 9 Noroeste 0 1022.9 0.9 88
2020-01-08 06:00:00 5.7 4 Noroeste 8 Noroeste 0 1022.4 0.6 92
2020-01-08 05:00:00 6 4 Noroeste 7 Noroeste 0 1022 0 89
2020-01-08 04:00:00 6.4 5 Oeste 13 Oeste 0 1022 -0.6 87
2020-01-08 03:00:00 6.6 6 Noroeste 18 Noroeste 0 1021.8 -1.4 88
2020-01-08 02:00:00 6.9 7 Oeste 17 Oeste 0 1022 -1.5 87
2020-01-08 01:00:00 6.8 9 Oeste 13 Oeste 0 1022.6 -1.1 88
2020-01-08 00:00:00 6.8 6 Noroeste 12 Oeste 0 1023.2 -0.5 89
2020-01-07 23:00:00 7.1 5 Noroeste 9 Noroeste 0 1023.5 -0.2 88
2020-01-07 22:00:00 7.3 6 Noroeste 11 Oeste 0 1023.7 0.3 87
2020-01-07 21:00:00 7.9 4 Noroeste 8 Oeste 0 1023.7 0.6 85
2020-01-07 20:00:00 9.1 5 Noroeste 8 Noroeste 0 1023.7 0.8 83
2020-01-07 19:00:00 10.1 0 Calma 5 Sur 0 1023.4 0.6 84
2020-01-07 18:00:00 11.5 4 Sur 10 Sur 0 1023.1 0.2 77
2020-01-07 17:00:00 12.9 6 Sur 12 Este 0 1022.9 -0.3 70
2020-01-07 16:00:00 13.5 5 Sudeste 13 Sudeste 0 1022.8 -1.5 63
2020-01-07 15:00:00 13.9 7 Sudeste 16 Este 0 1022.9 -2.7 60
2020-01-07 14:00:00 14.3 6 Sur 15 Sudeste 0 1023.2 -2.8 65
2020-01-07 13:00:00 14.2 4 Sur 11 Sudeste 0 1024.3 -1.5 64
2020-01-07 12:00:00 12 5 Sudoeste 12 Oeste 0 1025.6 0.2 73
2020-01-07 11:00:00 9.9 6 Oeste 13 Noroeste 0 1026 1 82
2020-01-07 10:00:00 7 7 Oeste 13 Oeste 0 1025.8 1.1 87
2020-01-07 09:00:00 5.6 8 Oeste 14 Oeste 0 1025.4 0.8 89
2020-01-07 08:00:00 5.6 6 Noroeste 15 Oeste 0 1025 0.1 89
2020-01-07 07:00:00 6.3 10 Oeste 15 Oeste 0 1024.7 -0.5 87
2020-01-07 06:00:00 6.3 8 Oeste 17 Noroeste 0 1024.6 -0.5 87
2020-01-07 05:00:00 7.1 9 Oeste 14 Oeste 0 1024.9 0.2 88
2020-01-07 04:00:00 6.7 10 Oeste 14 Oeste 0 1025.2 0.5 91
2020-01-07 03:00:00 6 8 Oeste 14 Oeste 0 1025.1 0.5 92
2020-01-07 02:00:00 6.1 6 Noroeste 13 Noroeste 0 1024.7 0.2 91
2020-01-07 01:00:00 6.6 7 Oeste 13 Oeste 0 1024.7 0.4 91
2020-01-07 00:00:00 7.1 7 Oeste 13 Oeste 0 1024.6 1 90
2020-01-06 23:00:00 7.5 7 Oeste 12 Oeste 0 1024.5 1.1 90
2020-01-06 22:00:00 7.8 8 Oeste 12 Oeste 0 1024.3 1.3 90
2020-01-06 21:00:00 8.2 5 Oeste 8 Oeste 0 1023.6 0.8 88
2020-01-06 20:00:00 9.4 4 Noroeste 7 Noroeste 0 1023.4 1 89
2020-01-06 19:00:00 10.4 0 Calma 3 Oeste 0 1023 0.7 86
2020-01-06 18:00:00 11.8 3 Este 9 Sudeste 0 1022.8 0.8 82
2020-01-06 17:00:00 13 6 Sur 13 Este 0 1022.4 -0.1 75
2020-01-06 16:00:00 13.6 6 Sudeste 12 Sudeste 0 1022.3 -1 71
2020-01-06 15:00:00 13.9 6 Sudeste 15 Este 0 1022 -2.1 69
2020-01-06 14:00:00 14.8 6 Sudeste 13 Este 0 1022.5 -1.9 66
2020-01-06 13:00:00 14.2 3 Este 9 Este 0 1023.3 -1.2 63
2020-01-06 12:00:00 12 3 Nordeste 11 Oeste 0 1024.1 -0.1 72
2020-01-06 11:00:00 9.4 8 Oeste 18 Noroeste 0 1024.4 0.7 67
2020-01-06 10:00:00 6.6 11 Oeste 18 Noroeste 0 1024.5 1.1 72